Strona główna
METAR-TAF:

METAR-TAF

Lotnisko :

Marham, Anglia

Szerokość geograficzna: 52-39N, Długość geograficzna: 000-34E, wysokość: 23 m

Aktualna obserwacja pogody

Raport powstał 59 minut temu, godzina 05:50 UTC
Wiatr 7 kt od północno-północny wschód
Temperatura 14°C
Wilgotność 82%
Ciśnienie 1024 hPa
Widzialność 10 km lub więcej
Brak chmur poniżej 1500 m i brak chmur cumulonimbus

METAR: EGYM 010550Z 03007KT CAVOK 14/11 Q1024 BLU

czas: 07:49 (06:49 UTC)


TAF: brakujący

Obserwacja i prognoza pogody dla ponad 4000 lotnisk (raport METAR i TAF).

Dostępne stacje oznaczono żółtymi i czerwonymi punktami na mapie.

Najedź kursorem aby zobaczyć nazwę stacji.

Kliknij aby zobaczyć obserwacje i prognozy pogody.

Aby zmienić mapę: kliknij na zielony przycisk z czarnym krzyżykiem, aby powiększyć; na zielony przycisk z myślnikiem, aby pomniejszyć; na zielone strzałki, aby przejść do map sąsiednich.


METAR-TAF: